sensor_id;sensor_type;location;lat;lon;timestamp;temperature;humidity
36132;DHT22;22185;48.738;9.324;2023-03-23T00:01:22;11.80;99.90
36132;DHT22;22185;48.738;9.324;2023-03-23T00:03:24;11.80;99.90
36132;DHT22;22185;48.738;9.324;2023-03-23T00:05:29;11.80;99.90
36132;DHT22;22185;48.738;9.324;2023-03-23T00:07:29;11.80;99.90
36132;DHT22;22185;48.738;9.324;2023-03-23T00:09:30;11.90;99.90
36132;DHT22;22185;48.738;9.324;2023-03-23T00:11:34;11.90;99.90
36132;DHT22;22185;48.738;9.324;2023-03-23T00:13:35;11.90;99.90
36132;DHT22;22185;48.738;9.324;2023-03-23T00:15:36;11.90;99.90
36132;DHT22;22185;48.738;9.324;2023-03-23T00:17:41;11.80;99.90
36132;DHT22;22185;48.738;9.324;2023-03-23T00:19:43;11.90;99.90
36132;DHT22;22185;48.738;9.324;2023-03-23T00:21:47;11.90;99.90
36132;DHT22;22185;48.738;9.324;2023-03-23T00:23:47;11.80;99.90
36132;DHT22;22185;48.738;9.324;2023-03-23T00:25:52;11.70;99.90
36132;DHT22;22185;48.738;9.324;2023-03-23T00:27:53;11.80;99.90
36132;DHT22;22185;48.738;9.324;2023-03-23T00:29:54;11.80;99.90
36132;DHT22;22185;48.738;9.324;2023-03-23T00:31:55;11.70;99.90
36132;DHT22;22185;48.738;9.324;2023-03-23T00:33:57;11.70;99.90
36132;DHT22;22185;48.738;9.324;2023-03-23T00:35:59;11.80;99.90
36132;DHT22;22185;48.738;9.324;2023-03-23T00:37:59;11.70;99.90
36132;DHT22;22185;48.738;9.324;2023-03-23T00:40:00;11.70;99.90
36132;DHT22;22185;48.738;9.324;2023-03-23T00:42:01;11.70;99.90
36132;DHT22;22185;48.738;9.324;2023-03-23T00:44:02;11.70;99.90
36132;DHT22;22185;48.738;9.324;2023-03-23T00:46:03;11.70;99.90
36132;DHT22;22185;48.738;9.324;2023-03-23T00:48:08;11.60;99.90
36132;DHT22;22185;48.738;9.324;2023-03-23T00:50:09;11.70;99.90
36132;DHT22;22185;48.738;9.324;2023-03-23T00:52:10;11.60;99.90
36132;DHT22;22185;48.738;9.324;2023-03-23T00:54:11;11.60;99.90
36132;DHT22;22185;48.738;9.324;2023-03-23T00:56:12;11.60;99.90
36132;DHT22;22185;48.738;9.324;2023-03-23T00:58:12;11.60;99.90
36132;DHT22;22185;48.738;9.324;2023-03-23T01:00:13;11.60;99.90
36132;DHT22;22185;48.738;9.324;2023-03-23T01:02:14;11.70;99.90
36132;DHT22;22185;48.738;9.324;2023-03-23T01:04:15;11.70;99.90
36132;DHT22;22185;48.738;9.324;2023-03-23T01:06:16;11.70;99.90
36132;DHT22;22185;48.738;9.324;2023-03-23T01:08:16;11.60;99.90
36132;DHT22;22185;48.738;9.324;2023-03-23T01:10:19;11.50;99.90
36132;DHT22;22185;48.738;9.324;2023-03-23T01:12:19;11.40;99.90
36132;DHT22;22185;48.738;9.324;2023-03-23T01:14:20;11.50;99.90
36132;DHT22;22185;48.738;9.324;2023-03-23T01:16:21;11.40;99.90
36132;DHT22;22185;48.738;9.324;2023-03-23T01:18:22;11.40;99.90
36132;DHT22;22185;48.738;9.324;2023-03-23T01:20:22;11.50;99.90
36132;DHT22;22185;48.738;9.324;2023-03-23T01:22:23;11.50;99.90
36132;DHT22;22185;48.738;9.324;2023-03-23T01:24:24;11.50;99.90
36132;DHT22;22185;48.738;9.324;2023-03-23T01:26:26;11.50;99.90
36132;DHT22;22185;48.738;9.324;2023-03-23T01:28:26;11.60;99.90
36132;DHT22;22185;48.738;9.324;2023-03-23T01:30:27;11.60;99.90
36132;DHT22;22185;48.738;9.324;2023-03-23T01:32:28;11.60;99.90
36132;DHT22;22185;48.738;9.324;2023-03-23T01:34:28;11.50;99.90
36132;DHT22;22185;48.738;9.324;2023-03-23T01:36:29;11.50;99.90
36132;DHT22;22185;48.738;9.324;2023-03-23T01:38:33;11.50;99.90
36132;DHT22;22185;48.738;9.324;2023-03-23T01:40:34;11.50;99.90
36132;DHT22;22185;48.738;9.324;2023-03-23T01:42:35;11.50;99.90
36132;DHT22;22185;48.738;9.324;2023-03-23T01:46:37;11.50;99.90
36132;DHT22;22185;48.738;9.324;2023-03-23T01:48:37;11.50;99.90
36132;DHT22;22185;48.738;9.324;2023-03-23T01:51:20;11.60;99.90
36132;DHT22;22185;48.738;9.324;2023-03-23T01:53:02;11.60;99.90
36132;DHT22;22185;48.738;9.324;2023-03-23T01:55:06;11.60;99.90
36132;DHT22;22185;48.738;9.324;2023-03-23T01:57:17;11.50;99.90
36132;DHT22;22185;48.738;9.324;2023-03-23T01:59:18;11.50;99.90
36132;DHT22;22185;48.738;9.324;2023-03-23T02:01:20;11.40;99.90
36132;DHT22;22185;48.738;9.324;2023-03-23T02:03:21;11.40;99.90
36132;DHT22;22185;48.738;9.324;2023-03-23T02:05:28;11.40;99.90
36132;DHT22;22185;48.738;9.324;2023-03-23T02:07:29;11.30;99.90
36132;DHT22;22185;48.738;9.324;2023-03-23T02:09:29;11.30;99.90
36132;DHT22;22185;48.738;9.324;2023-03-23T02:11:30;11.40;99.90
36132;DHT22;22185;48.738;9.324;2023-03-23T02:13:31;11.40;99.90
36132;DHT22;22185;48.738;9.324;2023-03-23T02:18:14;11.50;99.90
36132;DHT22;22185;48.738;9.324;2023-03-23T02:20:19;11.50;99.90
36132;DHT22;22185;48.738;9.324;2023-03-23T02:27:02;11.40;99.90
36132;DHT22;22185;48.738;9.324;2023-03-23T02:36:05;11.40;99.90
36132;DHT22;22185;48.738;9.324;2023-03-23T02:38:18;11.40;99.90
36132;DHT22;22185;48.738;9.324;2023-03-23T02:41:03;11.50;99.90
36132;DHT22;22185;48.738;9.324;2023-03-23T02:42:45;11.40;99.90
36132;DHT22;22185;48.738;9.324;2023-03-23T02:44:47;11.30;99.90
36132;DHT22;22185;48.738;9.324;2023-03-23T02:46:49;11.30;99.90
36132;DHT22;22185;48.738;9.324;2023-03-23T02:48:50;11.30;99.90
36132;DHT22;22185;48.738;9.324;2023-03-23T02:50:52;11.40;99.90
36132;DHT22;22185;48.738;9.324;2023-03-23T02:52:53;11.30;99.90
36132;DHT22;22185;48.738;9.324;2023-03-23T02:54:55;11.30;99.90
36132;DHT22;22185;48.738;9.324;2023-03-23T02:56:58;11.30;99.90
36132;DHT22;22185;48.738;9.324;2023-03-23T02:58:59;11.40;99.90
36132;DHT22;22185;48.738;9.324;2023-03-23T03:01:11;11.40;99.90
36132;DHT22;22185;48.738;9.324;2023-03-23T03:03:15;11.40;99.90
36132;DHT22;22185;48.738;9.324;2023-03-23T03:09:26;11.40;99.90
36132;DHT22;22185;48.738;9.324;2023-03-23T03:11:29;11.40;99.90
36132;DHT22;22185;48.738;9.324;2023-03-23T03:17:36;11.30;99.90
36132;DHT22;22185;48.738;9.324;2023-03-23T03:19:40;11.30;99.90
36132;DHT22;22185;48.738;9.324;2023-03-23T03:21:42;11.20;99.90
36132;DHT22;22185;48.738;9.324;2023-03-23T03:23:44;11.30;99.90
36132;DHT22;22185;48.738;9.324;2023-03-23T03:25:46;11.30;99.90
36132;DHT22;22185;48.738;9.324;2023-03-23T03:27:49;11.20;99.90
36132;DHT22;22185;48.738;9.324;2023-03-23T03:29:53;11.20;99.90
36132;DHT22;22185;48.738;9.324;2023-03-23T03:31:55;11.30;99.90
36132;DHT22;22185;48.738;9.324;2023-03-23T03:33:57;11.30;99.90
36132;DHT22;22185;48.738;9.324;2023-03-23T03:35:59;11.30;99.90
36132;DHT22;22185;48.738;9.324;2023-03-23T03:38:07;11.40;99.90
36132;DHT22;22185;48.738;9.324;2023-03-23T03:40:10;11.30;99.90
36132;DHT22;22185;48.738;9.324;2023-03-23T03:42:12;11.30;99.90
36132;DHT22;22185;48.738;9.324;2023-03-23T03:44:12;11.30;99.90
36132;DHT22;22185;48.738;9.324;2023-03-23T03:46:13;11.30;99.90
36132;DHT22;22185;48.738;9.324;2023-03-23T03:48:13;11.30;99.90
36132;DHT22;22185;48.738;9.324;2023-03-23T03:50:14;11.20;99.90
36132;DHT22;22185;48.738;9.324;2023-03-23T03:52:15;11.30;99.90
36132;DHT22;22185;48.738;9.324;2023-03-23T03:54:15;11.30;99.90
36132;DHT22;22185;48.738;9.324;2023-03-23T03:56:16;11.30;99.90
36132;DHT22;22185;48.738;9.324;2023-03-23T03:58:16;11.30;99.90
36132;DHT22;22185;48.738;9.324;2023-03-23T04:00:17;11.30;99.90
36132;DHT22;22185;48.738;9.324;2023-03-23T04:02:19;11.40;99.90
36132;DHT22;22185;48.738;9.324;2023-03-23T04:04:20;11.40;99.90
36132;DHT22;22185;48.738;9.324;2023-03-23T04:06:22;11.30;99.90
36132;DHT22;22185;48.738;9.324;2023-03-23T04:08:22;11.30;99.90
36132;DHT22;22185;48.738;9.324;2023-03-23T04:10:23;11.30;99.90
36132;DHT22;22185;48.738;9.324;2023-03-23T04:12:24;11.30;99.90
36132;DHT22;22185;48.738;9.324;2023-03-23T04:14:24;11.30;99.90
36132;DHT22;22185;48.738;9.324;2023-03-23T04:16:25;11.30;99.90
36132;DHT22;22185;48.738;9.324;2023-03-23T04:18:26;11.30;99.90
36132;DHT22;22185;48.738;9.324;2023-03-23T04:20:27;11.30;99.90
36132;DHT22;22185;48.738;9.324;2023-03-23T04:22:27;11.30;99.90
36132;DHT22;22185;48.738;9.324;2023-03-23T04:24:30;11.40;99.90
36132;DHT22;22185;48.738;9.324;2023-03-23T04:26:33;11.30;99.90
36132;DHT22;22185;48.738;9.324;2023-03-23T04:28:34;11.20;99.90
36132;DHT22;22185;48.738;9.324;2023-03-23T04:30:35;11.30;99.90
36132;DHT22;22185;48.738;9.324;2023-03-23T04:32:36;11.30;99.90
36132;DHT22;22185;48.738;9.324;2023-03-23T04:34:41;11.40;99.90
36132;DHT22;22185;48.738;9.324;2023-03-23T04:36:41;11.40;99.90
36132;DHT22;22185;48.738;9.324;2023-03-23T04:38:42;11.40;99.90
36132;DHT22;22185;48.738;9.324;2023-03-23T04:40:43;11.40;99.90
36132;DHT22;22185;48.738;9.324;2023-03-23T04:42:44;11.30;99.90
36132;DHT22;22185;48.738;9.324;2023-03-23T04:44:49;11.30;99.90
36132;DHT22;22185;48.738;9.324;2023-03-23T04:46:53;11.30;99.90
36132;DHT22;22185;48.738;9.324;2023-03-23T04:48:54;11.30;99.90
36132;DHT22;22185;48.738;9.324;2023-03-23T04:50:55;11.30;99.90
36132;DHT22;22185;48.738;9.324;2023-03-23T04:52:56;11.40;99.90
36132;DHT22;22185;48.738;9.324;2023-03-23T04:54:58;11.30;99.90
36132;DHT22;22185;48.738;9.324;2023-03-23T04:56:58;11.30;99.90
36132;DHT22;22185;48.738;9.324;2023-03-23T04:58:59;11.30;99.90
36132;DHT22;22185;48.738;9.324;2023-03-23T05:01:01;11.30;99.90
36132;DHT22;22185;48.738;9.324;2023-03-23T05:03:02;11.30;99.90
36132;DHT22;22185;48.738;9.324;2023-03-23T05:05:03;11.30;99.90
36132;DHT22;22185;48.738;9.324;2023-03-23T05:07:04;11.30;99.90
36132;DHT22;22185;48.738;9.324;2023-03-23T05:09:04;11.30;99.90
36132;DHT22;22185;48.738;9.324;2023-03-23T05:11:05;11.40;99.90
36132;DHT22;22185;48.738;9.324;2023-03-23T05:13:06;11.40;99.90
36132;DHT22;22185;48.738;9.324;2023-03-23T05:15:07;11.50;99.90
36132;DHT22;22185;48.738;9.324;2023-03-23T05:17:08;11.50;99.90
36132;DHT22;22185;48.738;9.324;2023-03-23T05:19:09;11.50;99.90
36132;DHT22;22185;48.738;9.324;2023-03-23T05:21:09;11.50;99.90
36132;DHT22;22185;48.738;9.324;2023-03-23T05:23:10;11.50;99.90
36132;DHT22;22185;48.738;9.324;2023-03-23T05:25:11;11.40;99.90
36132;DHT22;22185;48.738;9.324;2023-03-23T05:27:12;11.40;99.90
36132;DHT22;22185;48.738;9.324;2023-03-23T05:29:13;11.40;99.90
36132;DHT22;22185;48.738;9.324;2023-03-23T05:31:13;11.50;99.90
36132;DHT22;22185;48.738;9.324;2023-03-23T05:33:14;11.40;99.90
36132;DHT22;22185;48.738;9.324;2023-03-23T05:35:15;11.40;99.90
36132;DHT22;22185;48.738;9.324;2023-03-23T05:37:16;11.40;99.90
36132;DHT22;22185;48.738;9.324;2023-03-23T05:39:16;11.30;99.90
36132;DHT22;22185;48.738;9.324;2023-03-23T05:41:17;11.40;99.90
36132;DHT22;22185;48.738;9.324;2023-03-23T05:43:18;11.40;99.90
36132;DHT22;22185;48.738;9.324;2023-03-23T05:45:19;11.40;99.90
36132;DHT22;22185;48.738;9.324;2023-03-23T05:47:19;11.50;99.90
36132;DHT22;22185;48.738;9.324;2023-03-23T05:49:20;11.50;99.90
36132;DHT22;22185;48.738;9.324;2023-03-23T05:51:20;11.60;99.90
36132;DHT22;22185;48.738;9.324;2023-03-23T05:53:21;11.60;99.90
36132;DHT22;22185;48.738;9.324;2023-03-23T05:55:22;11.50;99.90
36132;DHT22;22185;48.738;9.324;2023-03-23T05:57:22;11.50;99.90
36132;DHT22;22185;48.738;9.324;2023-03-23T05:59:23;11.50;99.90
36132;DHT22;22185;48.738;9.324;2023-03-23T06:01:24;11.50;99.90
36132;DHT22;22185;48.738;9.324;2023-03-23T06:03:25;11.50;99.90
36132;DHT22;22185;48.738;9.324;2023-03-23T06:05:25;11.50;99.90
36132;DHT22;22185;48.738;9.324;2023-03-23T06:07:26;11.60;99.90
36132;DHT22;22185;48.738;9.324;2023-03-23T06:09:26;11.60;99.90
36132;DHT22;22185;48.738;9.324;2023-03-23T06:11:27;11.70;99.90
36132;DHT22;22185;48.738;9.324;2023-03-23T06:13:27;11.70;99.90
36132;DHT22;22185;48.738;9.324;2023-03-23T06:15:28;11.80;99.90
36132;DHT22;22185;48.738;9.324;2023-03-23T06:17:32;11.90;99.90
36132;DHT22;22185;48.738;9.324;2023-03-23T06:19:32;11.90;99.90
36132;DHT22;22185;48.738;9.324;2023-03-23T06:21:34;11.90;99.90
36132;DHT22;22185;48.738;9.324;2023-03-23T06:23:35;12.00;99.90
36132;DHT22;22185;48.738;9.324;2023-03-23T06:25:36;12.00;99.90
36132;DHT22;22185;48.738;9.324;2023-03-23T06:27:37;12.00;99.90
36132;DHT22;22185;48.738;9.324;2023-03-23T06:29:37;11.90;99.90
36132;DHT22;22185;48.738;9.324;2023-03-23T06:31:39;12.00;99.90
36132;DHT22;22185;48.738;9.324;2023-03-23T06:33:40;12.10;99.90
36132;DHT22;22185;48.738;9.324;2023-03-23T06:35:41;12.10;99.90
36132;DHT22;22185;48.738;9.324;2023-03-23T06:37:43;12.10;99.90
36132;DHT22;22185;48.738;9.324;2023-03-23T06:39:44;12.10;99.90
36132;DHT22;22185;48.738;9.324;2023-03-23T06:41:44;12.10;99.90
36132;DHT22;22185;48.738;9.324;2023-03-23T06:43:45;12.10;99.90
36132;DHT22;22185;48.738;9.324;2023-03-23T06:45:46;12.10;99.90
36132;DHT22;22185;48.738;9.324;2023-03-23T06:47:47;12.10;99.90
36132;DHT22;22185;48.738;9.324;2023-03-23T06:49:48;12.10;99.90
36132;DHT22;22185;48.738;9.324;2023-03-23T06:51:49;12.10;99.90
36132;DHT22;22185;48.738;9.324;2023-03-23T06:53:50;12.10;99.90
36132;DHT22;22185;48.738;9.324;2023-03-23T06:55:51;12.00;99.90
36132;DHT22;22185;48.738;9.324;2023-03-23T06:57:51;12.10;99.90
36132;DHT22;22185;48.738;9.324;2023-03-23T06:59:52;12.20;99.90
36132;DHT22;22185;48.738;9.324;2023-03-23T07:01:52;12.20;99.90
36132;DHT22;22185;48.738;9.324;2023-03-23T07:03:54;12.30;99.90
36132;DHT22;22185;48.738;9.324;2023-03-23T07:05:55;12.50;99.90
36132;DHT22;22185;48.738;9.324;2023-03-23T07:07:56;12.60;99.90
36132;DHT22;22185;48.738;9.324;2023-03-23T07:09:57;12.70;99.90
36132;DHT22;22185;48.738;9.324;2023-03-23T07:11:58;12.80;99.90
36132;DHT22;22185;48.738;9.324;2023-03-23T07:13:59;12.90;99.90
36132;DHT22;22185;48.738;9.324;2023-03-23T07:16:00;13.00;99.90
36132;DHT22;22185;48.738;9.324;2023-03-23T07:18:04;13.00;99.90
36132;DHT22;22185;48.738;9.324;2023-03-23T07:20:05;13.10;99.90
36132;DHT22;22185;48.738;9.324;2023-03-23T07:22:06;13.10;99.90
36132;DHT22;22185;48.738;9.324;2023-03-23T07:24:10;13.10;99.90
36132;DHT22;22185;48.738;9.324;2023-03-23T07:26:14;13.10;99.90
36132;DHT22;22185;48.738;9.324;2023-03-23T07:28:14;13.10;99.90
36132;DHT22;22185;48.738;9.324;2023-03-23T07:30:16;13.10;99.90
36132;DHT22;22185;48.738;9.324;2023-03-23T07:32:17;13.10;99.90
36132;DHT22;22185;48.738;9.324;2023-03-23T07:34:17;13.10;99.90
36132;DHT22;22185;48.738;9.324;2023-03-23T07:36:19;13.10;99.90
36132;DHT22;22185;48.738;9.324;2023-03-23T07:38:20;13.10;99.90
36132;DHT22;22185;48.738;9.324;2023-03-23T07:40:21;13.00;99.90
36132;DHT22;22185;48.738;9.324;2023-03-23T07:42:22;13.00;99.90
36132;DHT22;22185;48.738;9.324;2023-03-23T07:44:22;13.00;99.90
36132;DHT22;22185;48.738;9.324;2023-03-23T07:46:23;13.00;99.90
36132;DHT22;22185;48.738;9.324;2023-03-23T07:48:24;13.00;99.90
36132;DHT22;22185;48.738;9.324;2023-03-23T07:50:25;13.00;99.90
36132;DHT22;22185;48.738;9.324;2023-03-23T07:52:26;13.00;99.90
36132;DHT22;22185;48.738;9.324;2023-03-23T07:54:27;13.10;99.90
36132;DHT22;22185;48.738;9.324;2023-03-23T07:56:28;13.20;99.90
36132;DHT22;22185;48.738;9.324;2023-03-23T07:58:29;13.30;99.90
36132;DHT22;22185;48.738;9.324;2023-03-23T08:00:30;13.50;99.90
36132;DHT22;22185;48.738;9.324;2023-03-23T08:02:33;13.60;99.90
36132;DHT22;22185;48.738;9.324;2023-03-23T08:04:33;13.70;99.90
36132;DHT22;22185;48.738;9.324;2023-03-23T08:06:40;13.80;99.90
36132;DHT22;22185;48.738;9.324;2023-03-23T08:08:44;13.90;99.90
36132;DHT22;22185;48.738;9.324;2023-03-23T08:10:46;14.10;99.90
36132;DHT22;22185;48.738;9.324;2023-03-23T08:12:46;14.20;99.90
36132;DHT22;22185;48.738;9.324;2023-03-23T08:14:47;14.30;99.90
36132;DHT22;22185;48.738;9.324;2023-03-23T08:16:48;14.40;99.90
36132;DHT22;22185;48.738;9.324;2023-03-23T08:18:59;14.50;99.90
36132;DHT22;22185;48.738;9.324;2023-03-23T08:21:01;14.60;99.90
36132;DHT22;22185;48.738;9.324;2023-03-23T08:23:04;14.70;99.90
36132;DHT22;22185;48.738;9.324;2023-03-23T08:25:06;14.80;99.90
36132;DHT22;22185;48.738;9.324;2023-03-23T08:27:07;14.90;99.90
36132;DHT22;22185;48.738;9.324;2023-03-23T08:29:09;15.00;99.90
36132;DHT22;22185;48.738;9.324;2023-03-23T08:31:13;15.20;99.90
36132;DHT22;22185;48.738;9.324;2023-03-23T08:33:14;15.40;99.90
36132;DHT22;22185;48.738;9.324;2023-03-23T08:35:18;15.50;99.90
36132;DHT22;22185;48.738;9.324;2023-03-23T08:37:19;15.70;99.90
36132;DHT22;22185;48.738;9.324;2023-03-23T08:39:20;15.80;99.90
36132;DHT22;22185;48.738;9.324;2023-03-23T08:41:23;15.80;99.90
36132;DHT22;22185;48.738;9.324;2023-03-23T08:43:24;15.90;99.90
36132;DHT22;22185;48.738;9.324;2023-03-23T08:45:31;15.90;99.90
36132;DHT22;22185;48.738;9.324;2023-03-23T08:47:54;15.90;99.90
36132;DHT22;22185;48.738;9.324;2023-03-23T08:50:03;16.00;99.90
36132;DHT22;22185;48.738;9.324;2023-03-23T08:52:04;16.00;99.90
36132;DHT22;22185;48.738;9.324;2023-03-23T08:54:10;15.90;99.90
36132;DHT22;22185;48.738;9.324;2023-03-23T08:56:17;15.90;99.90
36132;DHT22;22185;48.738;9.324;2023-03-23T08:58:17;15.90;99.90
36132;DHT22;22185;48.738;9.324;2023-03-23T09:00:20;15.90;99.90
36132;DHT22;22185;48.738;9.324;2023-03-23T09:02:21;15.90;99.90
36132;DHT22;22185;48.738;9.324;2023-03-23T09:04:24;16.00;99.90
36132;DHT22;22185;48.738;9.324;2023-03-23T09:06:25;15.90;99.90
36132;DHT22;22185;48.738;9.324;2023-03-23T09:08:29;15.90;99.90
36132;DHT22;22185;48.738;9.324;2023-03-23T09:10:35;15.90;99.90
36132;DHT22;22185;48.738;9.324;2023-03-23T09:12:36;16.00;99.90
36132;DHT22;22185;48.738;9.324;2023-03-23T09:14:38;16.10;99.90
36132;DHT22;22185;48.738;9.324;2023-03-23T09:16:39;16.10;99.90
36132;DHT22;22185;48.738;9.324;2023-03-23T09:18:41;16.10;99.90
36132;DHT22;22185;48.738;9.324;2023-03-23T09:20:44;16.20;99.90
36132;DHT22;22185;48.738;9.324;2023-03-23T09:22:46;16.30;99.90
36132;DHT22;22185;48.738;9.324;2023-03-23T09:24:50;16.30;99.90
36132;DHT22;22185;48.738;9.324;2023-03-23T09:26:52;16.20;99.90
36132;DHT22;22185;48.738;9.324;2023-03-23T09:28:53;16.20;99.90
36132;DHT22;22185;48.738;9.324;2023-03-23T09:30:56;16.20;99.90
36132;DHT22;22185;48.738;9.324;2023-03-23T09:32:59;16.30;99.90
36132;DHT22;22185;48.738;9.324;2023-03-23T09:35:01;16.40;99.90
36132;DHT22;22185;48.738;9.324;2023-03-23T09:37:02;16.50;99.90
36132;DHT22;22185;48.738;9.324;2023-03-23T09:39:05;16.60;99.90
36132;DHT22;22185;48.738;9.324;2023-03-23T09:41:15;16.50;99.90
36132;DHT22;22185;48.738;9.324;2023-03-23T09:45:44;16.60;99.90
36132;DHT22;22185;48.738;9.324;2023-03-23T09:52:23;16.50;99.90
36132;DHT22;22185;48.738;9.324;2023-03-23T09:54:39;16.50;99.90
36132;DHT22;22185;48.738;9.324;2023-03-23T09:56:41;16.50;99.90
36132;DHT22;22185;48.738;9.324;2023-03-23T09:58:45;16.40;99.90
36132;DHT22;22185;48.738;9.324;2023-03-23T10:00:53;16.50;99.90
36132;DHT22;22185;48.738;9.324;2023-03-23T10:02:59;16.40;99.90
36132;DHT22;22185;48.738;9.324;2023-03-23T10:05:14;16.50;99.90
36132;DHT22;22185;48.738;9.324;2023-03-23T10:07:21;16.40;99.90
36132;DHT22;22185;48.738;9.324;2023-03-23T10:09:27;16.50;99.90
36132;DHT22;22185;48.738;9.324;2023-03-23T10:15:56;16.70;99.90
36132;DHT22;22185;48.738;9.324;2023-03-23T10:18:04;16.70;99.90
36132;DHT22;22185;48.738;9.324;2023-03-23T10:22:14;16.90;99.90
36132;DHT22;22185;48.738;9.324;2023-03-23T10:24:17;16.80;99.90
36132;DHT22;22185;48.738;9.324;2023-03-23T10:26:41;16.70;99.90
36132;DHT22;22185;48.738;9.324;2023-03-23T10:28:48;16.80;99.90
36132;DHT22;22185;48.738;9.324;2023-03-23T10:30:58;16.70;99.90
36132;DHT22;22185;48.738;9.324;2023-03-23T10:33:03;16.80;99.90
36132;DHT22;22185;48.738;9.324;2023-03-23T10:35:14;16.90;99.90
36132;DHT22;22185;48.738;9.324;2023-03-23T10:39:26;16.80;99.90
36132;DHT22;22185;48.738;9.324;2023-03-23T10:41:28;16.90;99.90
36132;DHT22;22185;48.738;9.324;2023-03-23T10:43:32;16.90;99.90
36132;DHT22;22185;48.738;9.324;2023-03-23T10:45:33;16.80;99.90
36132;DHT22;22185;48.738;9.324;2023-03-23T10:47:36;16.80;99.90
36132;DHT22;22185;48.738;9.324;2023-03-23T10:51:42;16.80;99.90
36132;DHT22;22185;48.738;9.324;2023-03-23T10:53:46;16.70;99.90
36132;DHT22;22185;48.738;9.324;2023-03-23T10:55:50;16.80;99.90
36132;DHT22;22185;48.738;9.324;2023-03-23T10:58:00;16.80;99.90
36132;DHT22;22185;48.738;9.324;2023-03-23T11:00:06;16.80;99.90
36132;DHT22;22185;48.738;9.324;2023-03-23T11:02:11;16.90;99.90
36132;DHT22;22185;48.738;9.324;2023-03-23T11:04:18;17.10;99.90
36132;DHT22;22185;48.738;9.324;2023-03-23T11:07:03;17.20;99.90
36132;DHT22;22185;48.738;9.324;2023-03-23T11:09:12;17.10;99.90
36132;DHT22;22185;48.738;9.324;2023-03-23T11:11:20;17.10;99.90
36132;DHT22;22185;48.738;9.324;2023-03-23T11:13:31;17.10;99.90
36132;DHT22;22185;48.738;9.324;2023-03-23T11:15:37;17.10;99.90
36132;DHT22;22185;48.738;9.324;2023-03-23T11:17:43;17.10;99.90
36132;DHT22;22185;48.738;9.324;2023-03-23T11:19:44;17.20;99.90
36132;DHT22;22185;48.738;9.324;2023-03-23T11:22:06;17.20;99.90
36132;DHT22;22185;48.738;9.324;2023-03-23T11:24:10;17.20;99.90
36132;DHT22;22185;48.738;9.324;2023-03-23T11:28:51;17.30;99.90
36132;DHT22;22185;48.738;9.324;2023-03-23T11:30:59;17.30;99.90
36132;DHT22;22185;48.738;9.324;2023-03-23T11:33:11;17.30;99.90
36132;DHT22;22185;48.738;9.324;2023-03-23T11:35:31;17.20;99.90
36132;DHT22;22185;48.738;9.324;2023-03-23T11:37:41;17.10;99.90
36132;DHT22;22185;48.738;9.324;2023-03-23T11:39:53;17.20;99.90
36132;DHT22;22185;48.738;9.324;2023-03-23T11:44:41;17.20;99.90
36132;DHT22;22185;48.738;9.324;2023-03-23T11:47:32;17.30;99.90
36132;DHT22;22185;48.738;9.324;2023-03-23T11:49:30;17.40;99.90
36132;DHT22;22185;48.738;9.324;2023-03-23T11:58:37;17.40;99.90
36132;DHT22;22185;48.738;9.324;2023-03-23T12:00:41;17.50;99.90
36132;DHT22;22185;48.738;9.324;2023-03-23T12:08:02;17.40;99.90
36132;DHT22;22185;48.738;9.324;2023-03-23T12:22:34;17.60;99.90
36132;DHT22;22185;48.738;9.324;2023-03-23T12:27:05;17.60;99.90
36132;DHT22;22185;48.738;9.324;2023-03-23T12:32:25;17.50;99.90
36132;DHT22;22185;48.738;9.324;2023-03-23T12:38:43;17.60;99.90
36132;DHT22;22185;48.738;9.324;2023-03-23T12:43:34;17.50;99.90
36132;DHT22;22185;48.738;9.324;2023-03-23T12:47:55;17.60;99.90
36132;DHT22;22185;48.738;9.324;2023-03-23T12:51:59;17.70;99.90
36132;DHT22;22185;48.738;9.324;2023-03-23T12:54:11;17.90;99.90
36132;DHT22;22185;48.738;9.324;2023-03-23T12:58:25;18.20;99.90
36132;DHT22;22185;48.738;9.324;2023-03-23T13:00:31;18.20;99.90
36132;DHT22;22185;48.738;9.324;2023-03-23T13:02:37;18.30;99.90
36132;DHT22;22185;48.738;9.324;2023-03-23T13:04:50;18.20;99.90
36132;DHT22;22185;48.738;9.324;2023-03-23T13:07:00;18.10;99.90
36132;DHT22;22185;48.738;9.324;2023-03-23T13:09:15;17.90;99.90
36132;DHT22;22185;48.738;9.324;2023-03-23T13:11:25;18.00;99.90
36132;DHT22;22185;48.738;9.324;2023-03-23T13:13:48;18.20;99.90
36132;DHT22;22185;48.738;9.324;2023-03-23T13:18:13;18.30;99.90
36132;DHT22;22185;48.738;9.324;2023-03-23T13:20:57;18.00;99.90
36132;DHT22;22185;48.738;9.324;2023-03-23T13:25:17;17.90;99.90
36132;DHT22;22185;48.738;9.324;2023-03-23T13:27:24;17.90;99.90
36132;DHT22;22185;48.738;9.324;2023-03-23T13:29:28;17.90;99.90
36132;DHT22;22185;48.738;9.324;2023-03-23T13:31:33;17.90;99.90
36132;DHT22;22185;48.738;9.324;2023-03-23T13:33:36;17.90;99.90
36132;DHT22;22185;48.738;9.324;2023-03-23T13:35:37;17.90;99.90
36132;DHT22;22185;48.738;9.324;2023-03-23T13:37:41;17.90;99.90
36132;DHT22;22185;48.738;9.324;2023-03-23T13:39:54;17.90;99.90
36132;DHT22;22185;48.738;9.324;2023-03-23T13:44:16;18.00;99.90
36132;DHT22;22185;48.738;9.324;2023-03-23T13:46:29;17.80;99.90
36132;DHT22;22185;48.738;9.324;2023-03-23T13:48:41;17.80;99.90
36132;DHT22;22185;48.738;9.324;2023-03-23T13:50:57;17.80;99.90
36132;DHT22;22185;48.738;9.324;2023-03-23T13:53:14;17.80;99.90
36132;DHT22;22185;48.738;9.324;2023-03-23T13:55:39;17.80;99.90
36132;DHT22;22185;48.738;9.324;2023-03-23T14:00:09;17.80;99.90
36132;DHT22;22185;48.738;9.324;2023-03-23T14:04:39;17.90;99.90
36132;DHT22;22185;48.738;9.324;2023-03-23T14:06:41;17.90;99.90
36132;DHT22;22185;48.738;9.324;2023-03-23T14:08:43;17.80;99.90
36132;DHT22;22185;48.738;9.324;2023-03-23T14:12:52;17.80;99.90
36132;DHT22;22185;48.738;9.324;2023-03-23T14:15:12;17.80;99.90
36132;DHT22;22185;48.738;9.324;2023-03-23T14:17:26;17.80;99.90
36132;DHT22;22185;48.738;9.324;2023-03-23T14:19:39;17.80;99.90
36132;DHT22;22185;48.738;9.324;2023-03-23T14:22:15;17.90;99.90
36132;DHT22;22185;48.738;9.324;2023-03-23T14:24:27;17.80;99.90
36132;DHT22;22185;48.738;9.324;2023-03-23T14:26:33;17.80;99.90
36132;DHT22;22185;48.738;9.324;2023-03-23T14:28:40;17.90;99.90
36132;DHT22;22185;48.738;9.324;2023-03-23T14:30:45;17.90;99.90
36132;DHT22;22185;48.738;9.324;2023-03-23T14:32:47;17.80;99.90
36132;DHT22;22185;48.738;9.324;2023-03-23T14:35:05;17.70;99.90
36132;DHT22;22185;48.738;9.324;2023-03-23T14:37:09;17.80;99.90
36132;DHT22;22185;48.738;9.324;2023-03-23T14:39:30;17.80;99.90
36132;DHT22;22185;48.738;9.324;2023-03-23T14:41:31;17.80;99.90
36132;DHT22;22185;48.738;9.324;2023-03-23T14:43:42;17.80;99.90
36132;DHT22;22185;48.738;9.324;2023-03-23T14:45:52;17.80;99.90
36132;DHT22;22185;48.738;9.324;2023-03-23T14:48:03;17.90;99.90